sensor_id;sensor_type;location;lat;lon;timestamp;temperature;humidity
82231;DHT22;71832;45.138;9.816;2023-08-17T00:02:13;25.90;64.90
82231;DHT22;71832;45.138;9.816;2023-08-17T00:04:41;25.90;65.10
82231;DHT22;71832;45.138;9.816;2023-08-17T00:07:09;25.80;65.10
82231;DHT22;71832;45.138;9.816;2023-08-17T00:09:39;25.80;65.20
82231;DHT22;71832;45.138;9.816;2023-08-17T00:12:07;25.80;65.40
82231;DHT22;71832;45.138;9.816;2023-08-17T00:14:35;25.80;65.20
82231;DHT22;71832;45.138;9.816;2023-08-17T00:17:06;25.80;65.00
82231;DHT22;71832;45.138;9.816;2023-08-17T00:19:36;25.90;65.10
82231;DHT22;71832;45.138;9.816;2023-08-17T00:22:04;25.90;65.20
82231;DHT22;71832;45.138;9.816;2023-08-17T00:24:31;25.80;65.20
82231;DHT22;71832;45.138;9.816;2023-08-17T00:27:05;25.80;65.30
82231;DHT22;71832;45.138;9.816;2023-08-17T00:29:41;25.80;65.20
82231;DHT22;71832;45.138;9.816;2023-08-17T00:32:20;25.80;65.30
82231;DHT22;71832;45.138;9.816;2023-08-17T00:34:47;25.80;65.50
82231;DHT22;71832;45.138;9.816;2023-08-17T00:37:15;25.80;65.70
82231;DHT22;71832;45.138;9.816;2023-08-17T00:39:43;25.80;65.70
82231;DHT22;71832;45.138;9.816;2023-08-17T00:42:14;25.70;65.60
82231;DHT22;71832;45.138;9.816;2023-08-17T00:44:42;25.70;65.50
82231;DHT22;71832;45.138;9.816;2023-08-17T00:47:09;25.70;65.40
82231;DHT22;71832;45.138;9.816;2023-08-17T00:49:37;25.70;65.40
82231;DHT22;71832;45.138;9.816;2023-08-17T00:52:06;25.70;65.30
82231;DHT22;71832;45.138;9.816;2023-08-17T00:54:36;25.70;65.30
82231;DHT22;71832;45.138;9.816;2023-08-17T00:57:04;25.70;65.50
82231;DHT22;71832;45.138;9.816;2023-08-17T00:59:35;25.70;65.60
82231;DHT22;71832;45.138;9.816;2023-08-17T01:02:03;25.70;65.50
82231;DHT22;71832;45.138;9.816;2023-08-17T01:04:32;25.70;66.10
82231;DHT22;71832;45.138;9.816;2023-08-17T01:07:00;25.70;65.90
82231;DHT22;71832;45.138;9.816;2023-08-17T01:09:35;25.60;66.20
82231;DHT22;71832;45.138;9.816;2023-08-17T01:15:16;25.60;66.90
82231;DHT22;71832;45.138;9.816;2023-08-17T01:18:00;25.40;67.80
82231;DHT22;71832;45.138;9.816;2023-08-17T01:20:32;25.20;68.40
82231;DHT22;71832;45.138;9.816;2023-08-17T01:23:09;25.00;69.30
82231;DHT22;71832;45.138;9.816;2023-08-17T01:25:36;24.80;69.70
82231;DHT22;71832;45.138;9.816;2023-08-17T01:28:04;24.70;69.90
82231;DHT22;71832;45.138;9.816;2023-08-17T01:30:39;24.70;69.90
82231;DHT22;71832;45.138;9.816;2023-08-17T01:33:18;24.70;70.00
82231;DHT22;71832;45.138;9.816;2023-08-17T01:38:26;24.70;69.60
82231;DHT22;71832;45.138;9.816;2023-08-17T01:40:57;24.80;69.50
82231;DHT22;71832;45.138;9.816;2023-08-17T01:43:25;24.90;69.30
82231;DHT22;71832;45.138;9.816;2023-08-17T01:45:56;24.90;68.90
82231;DHT22;71832;45.138;9.816;2023-08-17T01:48:23;24.90;68.90
82231;DHT22;71832;45.138;9.816;2023-08-17T01:50:51;24.80;69.10
82231;DHT22;71832;45.138;9.816;2023-08-17T01:53:24;24.80;68.90
82231;DHT22;71832;45.138;9.816;2023-08-17T01:55:57;24.70;69.00
82231;DHT22;71832;45.138;9.816;2023-08-17T01:58:30;24.70;68.80
82231;DHT22;71832;45.138;9.816;2023-08-17T02:01:00;24.70;68.60
82231;DHT22;71832;45.138;9.816;2023-08-17T02:03:28;24.80;67.60
82231;DHT22;71832;45.138;9.816;2023-08-17T02:06:01;24.80;67.70
82231;DHT22;71832;45.138;9.816;2023-08-17T02:08:34;24.90;66.60
82231;DHT22;71832;45.138;9.816;2023-08-17T02:11:02;25.00;66.40
82231;DHT22;71832;45.138;9.816;2023-08-17T02:13:32;25.00;66.20
82231;DHT22;71832;45.138;9.816;2023-08-17T02:16:06;25.10;66.10
82231;DHT22;71832;45.138;9.816;2023-08-17T02:18:33;25.20;66.10
82231;DHT22;71832;45.138;9.816;2023-08-17T02:21:07;25.20;66.10
82231;DHT22;71832;45.138;9.816;2023-08-17T02:23:39;25.20;66.00
82231;DHT22;71832;45.138;9.816;2023-08-17T02:26:10;25.20;66.10
82231;DHT22;71832;45.138;9.816;2023-08-17T02:28:38;25.20;65.90
82231;DHT22;71832;45.138;9.816;2023-08-17T02:31:11;25.20;65.70
82231;DHT22;71832;45.138;9.816;2023-08-17T02:33:46;25.20;66.30
82231;DHT22;71832;45.138;9.816;2023-08-17T02:36:13;25.20;66.30
82231;DHT22;71832;45.138;9.816;2023-08-17T02:38:41;25.10;66.20
82231;DHT22;71832;45.138;9.816;2023-08-17T02:41:11;25.00;66.50
82231;DHT22;71832;45.138;9.816;2023-08-17T02:43:39;25.00;66.80
82231;DHT22;71832;45.138;9.816;2023-08-17T02:46:07;25.00;66.80
82231;DHT22;71832;45.138;9.816;2023-08-17T02:48:42;25.00;66.80
82231;DHT22;71832;45.138;9.816;2023-08-17T02:51:15;25.00;67.50
82231;DHT22;71832;45.138;9.816;2023-08-17T02:53:42;24.90;67.60
82231;DHT22;71832;45.138;9.816;2023-08-17T02:56:10;24.90;67.50
82231;DHT22;71832;45.138;9.816;2023-08-17T02:58:41;24.90;67.60
82231;DHT22;71832;45.138;9.816;2023-08-17T03:01:12;25.00;67.50
82231;DHT22;71832;45.138;9.816;2023-08-17T03:03:42;25.00;67.30
82231;DHT22;71832;45.138;9.816;2023-08-17T03:06:10;25.00;67.00
82231;DHT22;71832;45.138;9.816;2023-08-17T03:08:43;25.00;66.90
82231;DHT22;71832;45.138;9.816;2023-08-17T03:11:14;25.00;67.10
82231;DHT22;71832;45.138;9.816;2023-08-17T03:13:47;25.00;67.00
82231;DHT22;71832;45.138;9.816;2023-08-17T03:16:15;25.00;66.60
82231;DHT22;71832;45.138;9.816;2023-08-17T03:18:42;25.00;66.40
82231;DHT22;71832;45.138;9.816;2023-08-17T03:21:10;25.00;66.60
82231;DHT22;71832;45.138;9.816;2023-08-17T03:23:38;25.00;67.00
82231;DHT22;71832;45.138;9.816;2023-08-17T03:26:08;25.00;67.10
82231;DHT22;71832;45.138;9.816;2023-08-17T03:28:39;25.00;66.60
82231;DHT22;71832;45.138;9.816;2023-08-17T03:31:12;25.00;66.10
82231;DHT22;71832;45.138;9.816;2023-08-17T03:33:40;25.00;65.90
82231;DHT22;71832;45.138;9.816;2023-08-17T03:36:07;25.00;66.20
82231;DHT22;71832;45.138;9.816;2023-08-17T03:38:35;24.90;67.50
82231;DHT22;71832;45.138;9.816;2023-08-17T03:41:05;24.70;69.00
82231;DHT22;71832;45.138;9.816;2023-08-17T03:43:32;24.50;68.80
82231;DHT22;71832;45.138;9.816;2023-08-17T03:46:01;24.30;69.20
82231;DHT22;71832;45.138;9.816;2023-08-17T03:48:29;24.20;69.40
82231;DHT22;71832;45.138;9.816;2023-08-17T03:51:10;24.20;69.60
82231;DHT22;71832;45.138;9.816;2023-08-17T03:54:03;24.20;69.10
82231;DHT22;71832;45.138;9.816;2023-08-17T03:56:33;24.20;69.50
82231;DHT22;71832;45.138;9.816;2023-08-17T03:59:03;24.20;69.00
82231;DHT22;71832;45.138;9.816;2023-08-17T04:01:31;24.20;69.00
82231;DHT22;71832;45.138;9.816;2023-08-17T04:03:59;24.20;68.70
82231;DHT22;71832;45.138;9.816;2023-08-17T04:06:27;24.20;68.60
82231;DHT22;71832;45.138;9.816;2023-08-17T04:08:58;24.20;68.40
82231;DHT22;71832;45.138;9.816;2023-08-17T04:11:27;24.30;68.20
82231;DHT22;71832;45.138;9.816;2023-08-17T04:13:59;24.20;68.20
82231;DHT22;71832;45.138;9.816;2023-08-17T04:16:29;24.20;68.30
82231;DHT22;71832;45.138;9.816;2023-08-17T04:18:57;24.20;68.50
82231;DHT22;71832;45.138;9.816;2023-08-17T04:21:27;24.20;68.40
82231;DHT22;71832;45.138;9.816;2023-08-17T04:23:55;24.30;68.30
82231;DHT22;71832;45.138;9.816;2023-08-17T04:26:22;24.20;68.10
82231;DHT22;71832;45.138;9.816;2023-08-17T04:28:52;24.20;68.50
82231;DHT22;71832;45.138;9.816;2023-08-17T04:31:19;24.20;68.60
82231;DHT22;71832;45.138;9.816;2023-08-17T04:33:47;24.20;69.00
82231;DHT22;71832;45.138;9.816;2023-08-17T04:36:14;24.20;68.70
82231;DHT22;71832;45.138;9.816;2023-08-17T04:38:42;24.10;69.20
82231;DHT22;71832;45.138;9.816;2023-08-17T04:41:09;24.20;69.00
82231;DHT22;71832;45.138;9.816;2023-08-17T04:43:36;24.20;69.00
82231;DHT22;71832;45.138;9.816;2023-08-17T04:46:04;24.20;68.90
82231;DHT22;71832;45.138;9.816;2023-08-17T04:48:32;24.20;69.10
82231;DHT22;71832;45.138;9.816;2023-08-17T04:50:59;24.20;69.00
82231;DHT22;71832;45.138;9.816;2023-08-17T04:53:27;24.20;69.00
82231;DHT22;71832;45.138;9.816;2023-08-17T04:55:54;24.20;68.60
82231;DHT22;71832;45.138;9.816;2023-08-17T04:58:22;24.30;68.60
82231;DHT22;71832;45.138;9.816;2023-08-17T05:00:51;24.30;68.50
82231;DHT22;71832;45.138;9.816;2023-08-17T05:03:19;24.40;69.00
82231;DHT22;71832;45.138;9.816;2023-08-17T05:05:48;24.40;69.30
82231;DHT22;71832;45.138;9.816;2023-08-17T05:08:17;24.40;69.90
82231;DHT22;71832;45.138;9.816;2023-08-17T05:10:46;24.50;70.10
82231;DHT22;71832;45.138;9.816;2023-08-17T05:13:14;24.60;70.00
82231;DHT22;71832;45.138;9.816;2023-08-17T05:15:42;24.60;69.60
82231;DHT22;71832;45.138;9.816;2023-08-17T05:18:11;24.70;69.40
82231;DHT22;71832;45.138;9.816;2023-08-17T05:20:39;24.70;69.20
82231;DHT22;71832;45.138;9.816;2023-08-17T05:23:08;24.80;68.90
82231;DHT22;71832;45.138;9.816;2023-08-17T05:25:36;24.80;68.90
82231;DHT22;71832;45.138;9.816;2023-08-17T05:28:04;24.80;68.40
82231;DHT22;71832;45.138;9.816;2023-08-17T05:30:33;24.80;68.50
82231;DHT22;71832;45.138;9.816;2023-08-17T05:33:00;24.80;68.00
82231;DHT22;71832;45.138;9.816;2023-08-17T05:35:28;24.80;68.00
82231;DHT22;71832;45.138;9.816;2023-08-17T05:37:55;24.80;67.60
82231;DHT22;71832;45.138;9.816;2023-08-17T05:40:24;24.70;67.80
82231;DHT22;71832;45.138;9.816;2023-08-17T05:42:52;24.80;67.50
82231;DHT22;71832;45.138;9.816;2023-08-17T05:45:19;24.80;67.80
82231;DHT22;71832;45.138;9.816;2023-08-17T05:47:47;24.80;67.80
82231;DHT22;71832;45.138;9.816;2023-08-17T05:50:14;24.90;67.70
82231;DHT22;71832;45.138;9.816;2023-08-17T05:52:42;25.00;67.80
82231;DHT22;71832;45.138;9.816;2023-08-17T05:55:10;25.00;67.70
82231;DHT22;71832;45.138;9.816;2023-08-17T05:57:38;25.00;67.80
82231;DHT22;71832;45.138;9.816;2023-08-17T06:00:07;25.00;67.70
82231;DHT22;71832;45.138;9.816;2023-08-17T06:02:37;25.00;68.00
82231;DHT22;71832;45.138;9.816;2023-08-17T06:05:05;25.00;68.20
82231;DHT22;71832;45.138;9.816;2023-08-17T06:07:32;25.10;68.00
82231;DHT22;71832;45.138;9.816;2023-08-17T06:10:03;25.20;68.00
82231;DHT22;71832;45.138;9.816;2023-08-17T06:12:33;25.20;67.90
82231;DHT22;71832;45.138;9.816;2023-08-17T06:15:02;25.20;67.60
82231;DHT22;71832;45.138;9.816;2023-08-17T06:17:30;25.30;67.50
82231;DHT22;71832;45.138;9.816;2023-08-17T06:19:59;25.30;67.00
82231;DHT22;71832;45.138;9.816;2023-08-17T06:22:28;25.30;67.00
82231;DHT22;71832;45.138;9.816;2023-08-17T06:24:56;25.30;66.80
82231;DHT22;71832;45.138;9.816;2023-08-17T06:27:24;25.30;66.80
82231;DHT22;71832;45.138;9.816;2023-08-17T06:29:52;25.40;65.70
82231;DHT22;71832;45.138;9.816;2023-08-17T06:32:21;25.40;65.10
82231;DHT22;71832;45.138;9.816;2023-08-17T06:34:48;25.40;65.20
82231;DHT22;71832;45.138;9.816;2023-08-17T06:37:21;25.50;65.20
82231;DHT22;71832;45.138;9.816;2023-08-17T06:39:49;25.50;65.50
82231;DHT22;71832;45.138;9.816;2023-08-17T06:42:17;25.60;65.50
82231;DHT22;71832;45.138;9.816;2023-08-17T06:44:45;25.60;65.00
82231;DHT22;71832;45.138;9.816;2023-08-17T06:47:13;25.80;65.70
82231;DHT22;71832;45.138;9.816;2023-08-17T06:49:41;25.80;64.80
82231;DHT22;71832;45.138;9.816;2023-08-17T06:52:10;25.80;65.10
82231;DHT22;71832;45.138;9.816;2023-08-17T06:54:38;25.80;63.80
82231;DHT22;71832;45.138;9.816;2023-08-17T06:57:06;25.80;63.70
82231;DHT22;71832;45.138;9.816;2023-08-17T06:59:34;25.80;63.60
82231;DHT22;71832;45.138;9.816;2023-08-17T07:02:03;25.80;63.50
82231;DHT22;71832;45.138;9.816;2023-08-17T07:04:32;26.00;63.70
82231;DHT22;71832;45.138;9.816;2023-08-17T07:07:00;26.00;63.10
82231;DHT22;71832;45.138;9.816;2023-08-17T07:09:29;26.10;61.90
82231;DHT22;71832;45.138;9.816;2023-08-17T07:11:58;26.20;62.90
82231;DHT22;71832;45.138;9.816;2023-08-17T07:14:27;26.40;62.50
82231;DHT22;71832;45.138;9.816;2023-08-17T07:16:55;26.40;61.90
82231;DHT22;71832;45.138;9.816;2023-08-17T07:19:24;26.60;61.20
82231;DHT22;71832;45.138;9.816;2023-08-17T07:21:52;26.70;60.60
82231;DHT22;71832;45.138;9.816;2023-08-17T07:24:21;26.80;60.80
82231;DHT22;71832;45.138;9.816;2023-08-17T07:26:49;26.80;61.40
82231;DHT22;71832;45.138;9.816;2023-08-17T07:29:17;27.00;61.30
82231;DHT22;71832;45.138;9.816;2023-08-17T07:31:46;27.10;61.30
82231;DHT22;71832;45.138;9.816;2023-08-17T07:34:15;27.10;60.70
82231;DHT22;71832;45.138;9.816;2023-08-17T07:36:42;27.20;59.70
82231;DHT22;71832;45.138;9.816;2023-08-17T07:39:11;27.20;59.10
82231;DHT22;71832;45.138;9.816;2023-08-17T07:41:39;27.20;57.60
82231;DHT22;71832;45.138;9.816;2023-08-17T07:44:07;27.10;58.30
82231;DHT22;71832;45.138;9.816;2023-08-17T07:46:36;27.20;59.70
82231;DHT22;71832;45.138;9.816;2023-08-17T07:49:05;27.30;57.90
82231;DHT22;71832;45.138;9.816;2023-08-17T07:51:34;27.30;58.30
82231;DHT22;71832;45.138;9.816;2023-08-17T07:54:03;27.40;57.30
82231;DHT22;71832;45.138;9.816;2023-08-17T07:56:32;27.50;57.90
82231;DHT22;71832;45.138;9.816;2023-08-17T07:59:02;27.50;57.30
82231;DHT22;71832;45.138;9.816;2023-08-17T08:01:32;27.50;57.40
82231;DHT22;71832;45.138;9.816;2023-08-17T08:04:01;27.50;57.40
82231;DHT22;71832;45.138;9.816;2023-08-17T08:06:30;27.60;58.70
82231;DHT22;71832;45.138;9.816;2023-08-17T08:08:59;27.70;57.80
82231;DHT22;71832;45.138;9.816;2023-08-17T08:11:27;27.80;56.80
82231;DHT22;71832;45.138;9.816;2023-08-17T08:13:58;27.80;57.10
82231;DHT22;71832;45.138;9.816;2023-08-17T08:16:27;27.80;57.40
82231;DHT22;71832;45.138;9.816;2023-08-17T08:18:57;27.90;57.90
82231;DHT22;71832;45.138;9.816;2023-08-17T08:21:26;28.00;56.60
82231;DHT22;71832;45.138;9.816;2023-08-17T08:23:56;28.00;58.50
82231;DHT22;71832;45.138;9.816;2023-08-17T08:26:25;28.10;58.20
82231;DHT22;71832;45.138;9.816;2023-08-17T08:28:53;28.10;57.30
82231;DHT22;71832;45.138;9.816;2023-08-17T08:31:22;28.10;58.20
82231;DHT22;71832;45.138;9.816;2023-08-17T08:33:50;28.30;57.80
82231;DHT22;71832;45.138;9.816;2023-08-17T08:36:20;28.30;57.00
82231;DHT22;71832;45.138;9.816;2023-08-17T08:38:49;28.50;57.20
82231;DHT22;71832;45.138;9.816;2023-08-17T08:41:18;28.50;56.40
82231;DHT22;71832;45.138;9.816;2023-08-17T08:43:47;28.60;56.30
82231;DHT22;71832;45.138;9.816;2023-08-17T08:46:17;28.60;56.60
82231;DHT22;71832;45.138;9.816;2023-08-17T08:48:47;28.70;55.80
82231;DHT22;71832;45.138;9.816;2023-08-17T08:51:20;28.80;54.70
82231;DHT22;71832;45.138;9.816;2023-08-17T08:54:00;28.90;54.90
82231;DHT22;71832;45.138;9.816;2023-08-17T08:56:32;28.90;53.70
82231;DHT22;71832;45.138;9.816;2023-08-17T08:59:02;29.00;54.80
82231;DHT22;71832;45.138;9.816;2023-08-17T09:01:31;29.10;54.50
82231;DHT22;71832;45.138;9.816;2023-08-17T09:04:01;29.20;54.40
82231;DHT22;71832;45.138;9.816;2023-08-17T09:06:30;29.30;54.20
82231;DHT22;71832;45.138;9.816;2023-08-17T09:08:59;29.40;52.70
82231;DHT22;71832;45.138;9.816;2023-08-17T09:11:27;29.40;51.60
82231;DHT22;71832;45.138;9.816;2023-08-17T09:17:27;29.50;52.70
82231;DHT22;71832;45.138;9.816;2023-08-17T09:19:56;29.50;51.80
82231;DHT22;71832;45.138;9.816;2023-08-17T09:22:25;29.40;51.80
82231;DHT22;71832;45.138;9.816;2023-08-17T09:24:56;29.40;51.80
82231;DHT22;71832;45.138;9.816;2023-08-17T09:27:23;29.40;52.10
82231;DHT22;71832;45.138;9.816;2023-08-17T09:29:50;29.40;52.20
82231;DHT22;71832;45.138;9.816;2023-08-17T09:32:18;29.50;50.50
82231;DHT22;71832;45.138;9.816;2023-08-17T09:34:45;29.50;52.00
82231;DHT22;71832;45.138;9.816;2023-08-17T09:37:13;29.50;51.20
82231;DHT22;71832;45.138;9.816;2023-08-17T09:39:41;29.40;50.60
82231;DHT22;71832;45.138;9.816;2023-08-17T09:42:08;29.50;51.80
82231;DHT22;71832;45.138;9.816;2023-08-17T09:44:38;29.50;52.20
82231;DHT22;71832;45.138;9.816;2023-08-17T09:47:06;29.50;51.80
82231;DHT22;71832;45.138;9.816;2023-08-17T09:49:35;29.50;48.30
82231;DHT22;71832;45.138;9.816;2023-08-17T09:52:05;29.50;50.00
82231;DHT22;71832;45.138;9.816;2023-08-17T09:54:33;29.50;50.90
82231;DHT22;71832;45.138;9.816;2023-08-17T09:57:06;29.70;50.50
82231;DHT22;71832;45.138;9.816;2023-08-17T09:59:35;29.70;51.70
82231;DHT22;71832;45.138;9.816;2023-08-17T10:02:04;29.70;50.90
82231;DHT22;71832;45.138;9.816;2023-08-17T10:04:39;29.80;50.90
82231;DHT22;71832;45.138;9.816;2023-08-17T10:07:09;29.90;50.20
82231;DHT22;71832;45.138;9.816;2023-08-17T10:09:43;30.00;48.10
82231;DHT22;71832;45.138;9.816;2023-08-17T10:12:16;30.00;48.00
82231;DHT22;71832;45.138;9.816;2023-08-17T10:14:49;30.00;47.50
82231;DHT22;71832;45.138;9.816;2023-08-17T10:17:25;30.00;48.00
82231;DHT22;71832;45.138;9.816;2023-08-17T10:19:57;30.00;46.90
82231;DHT22;71832;45.138;9.816;2023-08-17T10:25:14;30.00;49.20
82231;DHT22;71832;45.138;9.816;2023-08-17T10:27:43;30.20;48.10
82231;DHT22;71832;45.138;9.816;2023-08-17T10:30:12;30.30;47.60
82231;DHT22;71832;45.138;9.816;2023-08-17T10:32:41;30.30;47.30
82231;DHT22;71832;45.138;9.816;2023-08-17T10:35:14;30.50;47.50
82231;DHT22;71832;45.138;9.816;2023-08-17T10:37:43;30.60;47.50
82231;DHT22;71832;45.138;9.816;2023-08-17T10:40:12;30.80;47.30
82231;DHT22;71832;45.138;9.816;2023-08-17T10:42:41;30.80;49.00
82231;DHT22;71832;45.138;9.816;2023-08-17T10:45:28;30.80;47.70
82231;DHT22;71832;45.138;9.816;2023-08-17T10:50:36;30.70;48.20
82231;DHT22;71832;45.138;9.816;2023-08-17T10:53:10;30.90;46.60
82231;DHT22;71832;45.138;9.816;2023-08-17T10:55:41;30.90;45.00
82231;DHT22;71832;45.138;9.816;2023-08-17T10:58:10;31.00;46.30
82231;DHT22;71832;45.138;9.816;2023-08-17T11:00:39;31.10;46.00
82231;DHT22;71832;45.138;9.816;2023-08-17T11:03:17;31.00;47.40
82231;DHT22;71832;45.138;9.816;2023-08-17T11:05:47;31.00;45.50
82231;DHT22;71832;45.138;9.816;2023-08-17T11:08:23;31.00;47.80
82231;DHT22;71832;45.138;9.816;2023-08-17T11:11:12;31.00;47.20
82231;DHT22;71832;45.138;9.816;2023-08-17T11:13:42;31.10;47.50
82231;DHT22;71832;45.138;9.816;2023-08-17T11:16:13;31.10;48.20
82231;DHT22;71832;45.138;9.816;2023-08-17T11:18:42;31.20;46.00
82231;DHT22;71832;45.138;9.816;2023-08-17T11:21:12;31.20;46.60
82231;DHT22;71832;45.138;9.816;2023-08-17T11:23:42;31.30;46.70
82231;DHT22;71832;45.138;9.816;2023-08-17T11:26:10;31.30;47.40
82231;DHT22;71832;45.138;9.816;2023-08-17T11:28:39;31.20;47.60
82231;DHT22;71832;45.138;9.816;2023-08-17T11:31:11;31.20;45.40
82231;DHT22;71832;45.138;9.816;2023-08-17T11:33:40;31.30;45.90
82231;DHT22;71832;45.138;9.816;2023-08-17T11:36:10;31.30;44.70
82231;DHT22;71832;45.138;9.816;2023-08-17T11:38:40;31.40;44.50
82231;DHT22;71832;45.138;9.816;2023-08-17T11:41:09;31.60;44.40
82231;DHT22;71832;45.138;9.816;2023-08-17T11:43:37;31.60;45.20
82231;DHT22;71832;45.138;9.816;2023-08-17T11:46:06;31.60;46.50
82231;DHT22;71832;45.138;9.816;2023-08-17T11:48:34;31.70;47.30
82231;DHT22;71832;45.138;9.816;2023-08-17T11:51:02;31.70;46.80
82231;DHT22;71832;45.138;9.816;2023-08-17T11:53:35;31.90;46.50
82231;DHT22;71832;45.138;9.816;2023-08-17T11:56:07;32.00;45.00
82231;DHT22;71832;45.138;9.816;2023-08-17T11:58:45;32.00;45.20
82231;DHT22;71832;45.138;9.816;2023-08-17T12:01:14;32.00;46.80
82231;DHT22;71832;45.138;9.816;2023-08-17T12:03:43;32.10;46.20
82231;DHT22;71832;45.138;9.816;2023-08-17T12:06:12;32.20;45.00
82231;DHT22;71832;45.138;9.816;2023-08-17T12:08:48;32.30;45.10
82231;DHT22;71832;45.138;9.816;2023-08-17T12:11:17;32.40;44.80
82231;DHT22;71832;45.138;9.816;2023-08-17T12:13:50;32.40;43.70
82231;DHT22;71832;45.138;9.816;2023-08-17T12:16:19;32.20;43.00
82231;DHT22;71832;45.138;9.816;2023-08-17T12:18:49;32.10;45.70
82231;DHT22;71832;45.138;9.816;2023-08-17T12:21:19;32.00;43.40
82231;DHT22;71832;45.138;9.816;2023-08-17T12:23:48;32.00;43.90
82231;DHT22;71832;45.138;9.816;2023-08-17T12:26:24;31.90;44.40
82231;DHT22;71832;45.138;9.816;2023-08-17T12:28:51;31.90;43.80
82231;DHT22;71832;45.138;9.816;2023-08-17T12:31:23;31.90;44.40
82231;DHT22;71832;45.138;9.816;2023-08-17T12:33:51;31.90;45.00
82231;DHT22;71832;45.138;9.816;2023-08-17T12:36:19;31.80;44.90
82231;DHT22;71832;45.138;9.816;2023-08-17T12:38:48;31.90;45.90
82231;DHT22;71832;45.138;9.816;2023-08-17T12:41:15;31.90;45.10
82231;DHT22;71832;45.138;9.816;2023-08-17T12:43:44;31.90;46.40
82231;DHT22;71832;45.138;9.816;2023-08-17T12:46:12;31.80;46.40
82231;DHT22;71832;45.138;9.816;2023-08-17T12:48:40;31.70;45.60
82231;DHT22;71832;45.138;9.816;2023-08-17T12:51:07;31.70;45.20
82231;DHT22;71832;45.138;9.816;2023-08-17T12:53:35;31.80;45.40
82231;DHT22;71832;45.138;9.816;2023-08-17T12:56:03;31.80;47.20
82231;DHT22;71832;45.138;9.816;2023-08-17T12:58:31;31.80;46.60
82231;DHT22;71832;45.138;9.816;2023-08-17T13:00:58;31.80;46.70
82231;DHT22;71832;45.138;9.816;2023-08-17T13:03:26;31.90;46.50
82231;DHT22;71832;45.138;9.816;2023-08-17T13:05:54;31.90;47.40
82231;DHT22;71832;45.138;9.816;2023-08-17T13:08:22;31.90;46.50
82231;DHT22;71832;45.138;9.816;2023-08-17T13:10:50;31.90;46.20
82231;DHT22;71832;45.138;9.816;2023-08-17T13:13:20;31.90;48.20
82231;DHT22;71832;45.138;9.816;2023-08-17T13:15:48;31.90;48.70
82231;DHT22;71832;45.138;9.816;2023-08-17T13:18:17;31.80;49.40
82231;DHT22;71832;45.138;9.816;2023-08-17T13:20:46;31.70;49.30
82231;DHT22;71832;45.138;9.816;2023-08-17T13:23:14;31.60;49.80
82231;DHT22;71832;45.138;9.816;2023-08-17T13:25:41;31.50;49.30
82231;DHT22;71832;45.138;9.816;2023-08-17T13:28:09;31.40;49.30
82231;DHT22;71832;45.138;9.816;2023-08-17T13:30:38;31.30;50.50
82231;DHT22;71832;45.138;9.816;2023-08-17T13:33:06;31.20;50.80
82231;DHT22;71832;45.138;9.816;2023-08-17T13:35:35;31.10;50.60
82231;DHT22;71832;45.138;9.816;2023-08-17T13:38:03;31.00;50.80
82231;DHT22;71832;45.138;9.816;2023-08-17T13:40:32;31.00;51.60
82231;DHT22;71832;45.138;9.816;2023-08-17T13:43:00;30.90;50.90
82231;DHT22;71832;45.138;9.816;2023-08-17T13:45:29;30.90;51.40
82231;DHT22;71832;45.138;9.816;2023-08-17T13:47:57;30.80;51.20
82231;DHT22;71832;45.138;9.816;2023-08-17T13:50:26;30.80;51.40
82231;DHT22;71832;45.138;9.816;2023-08-17T13:52:54;30.70;52.00
82231;DHT22;71832;45.138;9.816;2023-08-17T13:55:21;30.70;52.30
82231;DHT22;71832;45.138;9.816;2023-08-17T13:57:49;30.60;51.70
82231;DHT22;71832;45.138;9.816;2023-08-17T14:00:17;30.60;51.20
82231;DHT22;71832;45.138;9.816;2023-08-17T14:02:45;30.60;51.20
82231;DHT22;71832;45.138;9.816;2023-08-17T14:05:14;30.50;51.50
82231;DHT22;71832;45.138;9.816;2023-08-17T14:07:42;30.50;52.10
82231;DHT22;71832;45.138;9.816;2023-08-17T14:10:11;30.30;50.50
82231;DHT22;71832;45.138;9.816;2023-08-17T14:12:39;30.30;50.30
82231;DHT22;71832;45.138;9.816;2023-08-17T14:15:08;30.30;50.70
82231;DHT22;71832;45.138;9.816;2023-08-17T14:17:36;30.30;51.30
82231;DHT22;71832;45.138;9.816;2023-08-17T14:20:05;30.30;51.70
82231;DHT22;71832;45.138;9.816;2023-08-17T14:22:34;30.30;52.10
82231;DHT22;71832;45.138;9.816;2023-08-17T14:25:02;30.10;52.00
82231;DHT22;71832;45.138;9.816;2023-08-17T14:27:30;30.10;51.80
82231;DHT22;71832;45.138;9.816;2023-08-17T14:29:58;30.00;51.90
82231;DHT22;71832;45.138;9.816;2023-08-17T14:32:29;30.00;52.50
82231;DHT22;71832;45.138;9.816;2023-08-17T14:34:57;29.90;52.80
82231;DHT22;71832;45.138;9.816;2023-08-17T14:37:26;29.90;52.70
82231;DHT22;71832;45.138;9.816;2023-08-17T14:39:55;29.80;52.70
82231;DHT22;71832;45.138;9.816;2023-08-17T14:42:23;29.70;52.70
82231;DHT22;71832;45.138;9.816;2023-08-17T14:44:53;29.70;52.60
82231;DHT22;71832;45.138;9.816;2023-08-17T14:47:21;29.70;52.80
82231;DHT22;71832;45.138;9.816;2023-08-17T14:49:50;29.70;52.60
82231;DHT22;71832;45.138;9.816;2023-08-17T14:52:20;29.70;52.60
82231;DHT22;71832;45.138;9.816;2023-08-17T14:54:49;29.60;52.50
82231;DHT22;71832;45.138;9.816;2023-08-17T14:57:18;29.50;52.50
82231;DHT22;71832;45.138;9.816;2023-08-17T14:59:46;29.50;53.80
82231;DHT22;71832;45.138;9.816;2023-08-17T15:02:14;29.50;53.70
82231;DHT22;71832;45.138;9.816;2023-08-17T15:04:45;29.50;54.00
82231;DHT22;71832;45.138;9.816;2023-08-17T15:07:14;29.50;54.10
82231;DHT22;71832;45.138;9.816;2023-08-17T15:09:43;29.40;54.60
82231;DHT22;71832;45.138;9.816;2023-08-17T15:12:11;29.30;54.60
82231;DHT22;71832;45.138;9.816;2023-08-17T15:14:39;29.30;55.20
82231;DHT22;71832;45.138;9.816;2023-08-17T15:17:07;29.30;55.00
82231;DHT22;71832;45.138;9.816;2023-08-17T15:19:39;29.30;55.10
82231;DHT22;71832;45.138;9.816;2023-08-17T15:22:06;29.30;55.50
82231;DHT22;71832;45.138;9.816;2023-08-17T15:24:34;29.30;55.10
82231;DHT22;71832;45.138;9.816;2023-08-17T15:27:02;29.30;55.00
82231;DHT22;71832;45.138;9.816;2023-08-17T15:29:29;29.20;54.80
82231;DHT22;71832;45.138;9.816;2023-08-17T15:31:57;29.20;55.50
82231;DHT22;71832;45.138;9.816;2023-08-17T15:34:25;29.20;55.40
82231;DHT22;71832;45.138;9.816;2023-08-17T15:36:53;29.20;55.20
82231;DHT22;71832;45.138;9.816;2023-08-17T15:39:22;29.20;54.90
82231;DHT22;71832;45.138;9.816;2023-08-17T15:41:49;29.20;55.90
82231;DHT22;71832;45.138;9.816;2023-08-17T15:44:18;29.10;55.70
82231;DHT22;71832;45.138;9.816;2023-08-17T15:46:47;29.10;56.00
82231;DHT22;71832;45.138;9.816;2023-08-17T15:49:16;29.10;56.00
82231;DHT22;71832;45.138;9.816;2023-08-17T15:51:44;29.10;55.90
82231;DHT22;71832;45.138;9.816;2023-08-17T15:54:13;29.10;55.60
82231;DHT22;71832;45.138;9.816;2023-08-17T15:56:41;29.00;55.50
82231;DHT22;71832;45.138;9.816;2023-08-17T15:59:08;29.00;54.70